Grants Ranch, Colorado
Current Conditions -  °F | °C
As of 12:53 PM on Saturday 25 Oct 2014 (Local Time) from KAPA Reporting Station
Clear Clear  
Wind Chill: 74°   Ceiling: Unl
Heat Index: 74°   Visibility: 10mi
Dew Point: 21°   Wind: 12mph
Humidity: 14%   Direction: 120°ESE
Pressure: 30.21"   Gusts: NA
Location:  39.5977°N, 105.071°W
Report Text: KAPA 251853Z 12010KT 10SM CLR 23/M06 A3021 RMK AO2 SLP172 T02331061
Loading
Personal Weather Stations






























Interactive Weather Map
Tropical Storm Tracking
New forecast layout! Learn more

10-Day Weather Forecast

Advertisements
Track Severe Weather on mobile